sensor_id;sensor_type;location;lat;lon;timestamp;P1;durP1;ratioP1;P2;durP2;ratioP2
6348;SDS011;3207;42.648;23.406;2023-01-16T00:00:59;12.10;;;8.17;;
6348;SDS011;3207;42.648;23.406;2023-01-16T00:03:27;13.40;;;8.87;;
6348;SDS011;3207;42.648;23.406;2023-01-16T00:05:54;12.10;;;8.17;;
6348;SDS011;3207;42.648;23.406;2023-01-16T00:08:21;13.03;;;9.43;;
6348;SDS011;3207;42.648;23.406;2023-01-16T00:10:49;13.77;;;8.33;;
6348;SDS011;3207;42.648;23.406;2023-01-16T00:13:16;11.97;;;9.00;;
6348;SDS011;3207;42.648;23.406;2023-01-16T00:15:43;9.47;;;8.07;;
6348;SDS011;3207;42.648;23.406;2023-01-16T00:18:11;12.07;;;8.90;;
6348;SDS011;3207;42.648;23.406;2023-01-16T00:20:38;10.70;;;8.27;;
6348;SDS011;3207;42.648;23.406;2023-01-16T00:23:05;11.57;;;9.23;;
6348;SDS011;3207;42.648;23.406;2023-01-16T00:25:32;11.70;;;8.60;;
6348;SDS011;3207;42.648;23.406;2023-01-16T00:28:01;12.47;;;9.40;;
6348;SDS011;3207;42.648;23.406;2023-01-16T00:30:28;12.03;;;9.00;;
6348;SDS011;3207;42.648;23.406;2023-01-16T00:32:55;13.70;;;8.50;;
6348;SDS011;3207;42.648;23.406;2023-01-16T00:35:22;10.63;;;8.67;;
6348;SDS011;3207;42.648;23.406;2023-01-16T00:37:48;15.00;;;7.83;;
6348;SDS011;3207;42.648;23.406;2023-01-16T00:40:15;12.23;;;7.70;;
6348;SDS011;3207;42.648;23.406;2023-01-16T00:42:42;9.97;;;7.43;;
6348;SDS011;3207;42.648;23.406;2023-01-16T00:45:10;11.73;;;7.50;;
6348;SDS011;3207;42.648;23.406;2023-01-16T00:47:37;10.37;;;7.27;;
6348;SDS011;3207;42.648;23.406;2023-01-16T00:50:04;11.00;;;8.00;;
6348;SDS011;3207;42.648;23.406;2023-01-16T00:52:33;10.80;;;8.27;;
6348;SDS011;3207;42.648;23.406;2023-01-16T00:55:00;10.13;;;7.90;;
6348;SDS011;3207;42.648;23.406;2023-01-16T00:57:26;10.50;;;8.33;;
6348;SDS011;3207;42.648;23.406;2023-01-16T00:59:53;10.10;;;8.23;;
6348;SDS011;3207;42.648;23.406;2023-01-16T01:02:21;12.10;;;7.60;;
6348;SDS011;3207;42.648;23.406;2023-01-16T01:04:48;10.97;;;7.37;;
6348;SDS011;3207;42.648;23.406;2023-01-16T01:07:15;11.37;;;8.07;;
6348;SDS011;3207;42.648;23.406;2023-01-16T01:09:42;10.87;;;7.00;;
6348;SDS011;3207;42.648;23.406;2023-01-16T01:12:08;8.70;;;7.23;;
6348;SDS011;3207;42.648;23.406;2023-01-16T01:14:35;8.53;;;7.60;;
6348;SDS011;3207;42.648;23.406;2023-01-16T01:17:02;10.07;;;7.73;;
6348;SDS011;3207;42.648;23.406;2023-01-16T01:19:30;11.60;;;6.87;;
6348;SDS011;3207;42.648;23.406;2023-01-16T01:21:57;14.57;;;7.10;;
6348;SDS011;3207;42.648;23.406;2023-01-16T01:24:24;10.67;;;7.73;;
6348;SDS011;3207;42.648;23.406;2023-01-16T01:26:51;11.40;;;6.93;;
6348;SDS011;3207;42.648;23.406;2023-01-16T01:29:17;8.43;;;6.27;;
6348;SDS011;3207;42.648;23.406;2023-01-16T01:31:44;7.23;;;6.07;;
6348;SDS011;3207;42.648;23.406;2023-01-16T01:34:11;7.57;;;6.07;;
6348;SDS011;3207;42.648;23.406;2023-01-16T01:36:39;7.37;;;5.30;;
6348;SDS011;3207;42.648;23.406;2023-01-16T01:39:06;8.77;;;5.43;;
6348;SDS011;3207;42.648;23.406;2023-01-16T01:41:33;9.17;;;6.23;;
6348;SDS011;3207;42.648;23.406;2023-01-16T01:44:00;7.87;;;5.73;;
6348;SDS011;3207;42.648;23.406;2023-01-16T01:46:27;10.17;;;6.03;;
6348;SDS011;3207;42.648;23.406;2023-01-16T01:49:00;7.93;;;5.10;;
6348;SDS011;3207;42.648;23.406;2023-01-16T01:51:34;8.13;;;5.67;;
6348;SDS011;3207;42.648;23.406;2023-01-16T01:54:07;6.77;;;5.27;;
6348;SDS011;3207;42.648;23.406;2023-01-16T01:56:36;5.47;;;4.90;;
6348;SDS011;3207;42.648;23.406;2023-01-16T01:59:10;6.07;;;4.80;;
6348;SDS011;3207;42.648;23.406;2023-01-16T02:01:40;7.03;;;5.13;;
6348;SDS011;3207;42.648;23.406;2023-01-16T02:04:09;15.07;;;5.60;;
6348;SDS011;3207;42.648;23.406;2023-01-16T02:06:42;7.17;;;6.13;;
6348;SDS011;3207;42.648;23.406;2023-01-16T02:09:15;7.67;;;5.43;;
6348;SDS011;3207;42.648;23.406;2023-01-16T02:11:45;9.27;;;6.10;;
6348;SDS011;3207;42.648;23.406;2023-01-16T02:14:15;10.53;;;6.67;;
6348;SDS011;3207;42.648;23.406;2023-01-16T02:16:43;9.73;;;6.73;;
6348;SDS011;3207;42.648;23.406;2023-01-16T02:19:31;11.83;;;6.57;;
6348;SDS011;3207;42.648;23.406;2023-01-16T02:28:18;11.20;;;6.87;;
6348;SDS011;3207;42.648;23.406;2023-01-16T02:31:20;9.20;;;6.10;;
6348;SDS011;3207;42.648;23.406;2023-01-16T02:34:01;10.77;;;6.77;;
6348;SDS011;3207;42.648;23.406;2023-01-16T02:36:43;9.67;;;6.80;;
6348;SDS011;3207;42.648;23.406;2023-01-16T02:39:18;9.77;;;6.97;;
6348;SDS011;3207;42.648;23.406;2023-01-16T02:41:56;7.73;;;5.90;;
6348;SDS011;3207;42.648;23.406;2023-01-16T02:44:32;6.13;;;5.53;;
6348;SDS011;3207;42.648;23.406;2023-01-16T02:47:09;7.53;;;5.83;;
6348;SDS011;3207;42.648;23.406;2023-01-16T02:49:42;7.70;;;5.63;;
6348;SDS011;3207;42.648;23.406;2023-01-16T02:52:15;7.50;;;6.40;;
6348;SDS011;3207;42.648;23.406;2023-01-16T02:54:49;8.03;;;5.83;;
6348;SDS011;3207;42.648;23.406;2023-01-16T02:57:23;6.63;;;5.93;;
6348;SDS011;3207;42.648;23.406;2023-01-16T02:59:55;8.73;;;5.23;;
6348;SDS011;3207;42.648;23.406;2023-01-16T03:02:24;6.93;;;5.13;;
6348;SDS011;3207;42.648;23.406;2023-01-16T03:04:52;8.77;;;5.53;;
6348;SDS011;3207;42.648;23.406;2023-01-16T03:07:24;6.80;;;4.93;;
6348;SDS011;3207;42.648;23.406;2023-01-16T03:13:14;5.50;;;3.93;;
6348;SDS011;3207;42.648;23.406;2023-01-16T03:15:51;7.30;;;4.23;;
6348;SDS011;3207;42.648;23.406;2023-01-16T03:18:30;4.23;;;3.50;;
6348;SDS011;3207;42.648;23.406;2023-01-16T03:21:03;5.17;;;3.90;;
6348;SDS011;3207;42.648;23.406;2023-01-16T03:23:37;3.40;;;3.10;;
6348;SDS011;3207;42.648;23.406;2023-01-16T03:26:09;3.47;;;2.93;;
6348;SDS011;3207;42.648;23.406;2023-01-16T03:28:43;3.97;;;3.30;;
6348;SDS011;3207;42.648;23.406;2023-01-16T03:31:18;3.93;;;2.97;;
6348;SDS011;3207;42.648;23.406;2023-01-16T03:34:01;4.50;;;2.50;;
6348;SDS011;3207;42.648;23.406;2023-01-16T03:36:38;4.70;;;3.00;;
6348;SDS011;3207;42.648;23.406;2023-01-16T03:39:12;5.00;;;2.40;;
6348;SDS011;3207;42.648;23.406;2023-01-16T03:41:41;2.83;;;2.50;;
6348;SDS011;3207;42.648;23.406;2023-01-16T03:44:12;3.57;;;2.50;;
6348;SDS011;3207;42.648;23.406;2023-01-16T03:46:50;2.27;;;2.07;;
6348;SDS011;3207;42.648;23.406;2023-01-16T03:49:19;3.17;;;2.80;;
6348;SDS011;3207;42.648;23.406;2023-01-16T03:51:51;3.23;;;2.87;;
6348;SDS011;3207;42.648;23.406;2023-01-16T03:54:24;3.37;;;2.70;;
6348;SDS011;3207;42.648;23.406;2023-01-16T03:56:59;3.23;;;2.47;;
6348;SDS011;3207;42.648;23.406;2023-01-16T03:59:32;2.50;;;2.30;;
6348;SDS011;3207;42.648;23.406;2023-01-16T04:02:00;3.23;;;2.60;;
6348;SDS011;3207;42.648;23.406;2023-01-16T04:04:36;4.70;;;2.87;;
6348;SDS011;3207;42.648;23.406;2023-01-16T04:07:08;2.20;;;1.90;;
6348;SDS011;3207;42.648;23.406;2023-01-16T04:09:40;2.80;;;2.20;;
6348;SDS011;3207;42.648;23.406;2023-01-16T04:12:12;2.87;;;2.57;;
6348;SDS011;3207;42.648;23.406;2023-01-16T04:14:45;5.43;;;2.37;;
6348;SDS011;3207;42.648;23.406;2023-01-16T04:17:15;3.07;;;2.30;;
6348;SDS011;3207;42.648;23.406;2023-01-16T04:19:43;5.17;;;2.33;;
6348;SDS011;3207;42.648;23.406;2023-01-16T04:22:17;3.03;;;2.20;;
6348;SDS011;3207;42.648;23.406;2023-01-16T04:24:45;1.90;;;1.80;;
6348;SDS011;3207;42.648;23.406;2023-01-16T04:27:14;2.53;;;2.33;;
6348;SDS011;3207;42.648;23.406;2023-01-16T04:29:41;3.97;;;2.33;;
6348;SDS011;3207;42.648;23.406;2023-01-16T04:32:08;3.20;;;2.30;;
6348;SDS011;3207;42.648;23.406;2023-01-16T04:34:34;2.73;;;2.10;;
6348;SDS011;3207;42.648;23.406;2023-01-16T04:37:03;3.23;;;2.10;;
6348;SDS011;3207;42.648;23.406;2023-01-16T04:39:30;2.57;;;2.13;;
6348;SDS011;3207;42.648;23.406;2023-01-16T04:41:57;2.70;;;2.30;;
6348;SDS011;3207;42.648;23.406;2023-01-16T04:44:23;2.37;;;2.10;;
6348;SDS011;3207;42.648;23.406;2023-01-16T04:46:50;3.00;;;2.77;;
6348;SDS011;3207;42.648;23.406;2023-01-16T04:49:19;2.37;;;2.17;;
6348;SDS011;3207;42.648;23.406;2023-01-16T04:51:45;3.40;;;2.10;;
6348;SDS011;3207;42.648;23.406;2023-01-16T04:54:15;4.03;;;2.37;;
6348;SDS011;3207;42.648;23.406;2023-01-16T04:56:43;3.47;;;2.17;;
6348;SDS011;3207;42.648;23.406;2023-01-16T04:59:09;2.00;;;1.80;;
6348;SDS011;3207;42.648;23.406;2023-01-16T05:01:38;4.07;;;3.03;;
6348;SDS011;3207;42.648;23.406;2023-01-16T05:04:05;3.00;;;2.23;;
6348;SDS011;3207;42.648;23.406;2023-01-16T05:06:33;2.00;;;1.73;;
6348;SDS011;3207;42.648;23.406;2023-01-16T05:09:00;3.27;;;2.27;;
6348;SDS011;3207;42.648;23.406;2023-01-16T05:11:30;2.33;;;2.20;;
6348;SDS011;3207;42.648;23.406;2023-01-16T05:13:57;3.27;;;1.77;;
6348;SDS011;3207;42.648;23.406;2023-01-16T05:16:24;2.10;;;1.73;;
6348;SDS011;3207;42.648;23.406;2023-01-16T05:18:51;2.70;;;1.80;;
6348;SDS011;3207;42.648;23.406;2023-01-16T05:21:18;2.80;;;1.70;;
6348;SDS011;3207;42.648;23.406;2023-01-16T05:23:44;1.63;;;1.53;;
6348;SDS011;3207;42.648;23.406;2023-01-16T05:26:11;2.00;;;1.67;;
6348;SDS011;3207;42.648;23.406;2023-01-16T05:28:39;1.60;;;1.50;;
6348;SDS011;3207;42.648;23.406;2023-01-16T05:31:06;5.93;;;2.27;;
6348;SDS011;3207;42.648;23.406;2023-01-16T05:33:33;4.67;;;2.10;;
6348;SDS011;3207;42.648;23.406;2023-01-16T05:36:00;3.03;;;2.10;;
6348;SDS011;3207;42.648;23.406;2023-01-16T05:38:26;2.63;;;2.03;;
6348;SDS011;3207;42.648;23.406;2023-01-16T05:40:53;3.17;;;2.10;;
6348;SDS011;3207;42.648;23.406;2023-01-16T05:43:20;5.60;;;3.17;;
6348;SDS011;3207;42.648;23.406;2023-01-16T05:45:48;5.63;;;2.83;;
6348;SDS011;3207;42.648;23.406;2023-01-16T05:48:15;3.67;;;3.20;;
6348;SDS011;3207;42.648;23.406;2023-01-16T05:50:42;4.13;;;3.23;;
6348;SDS011;3207;42.648;23.406;2023-01-16T05:53:08;3.73;;;2.67;;
6348;SDS011;3207;42.648;23.406;2023-01-16T05:55:38;3.07;;;2.50;;
6348;SDS011;3207;42.648;23.406;2023-01-16T05:58:08;2.37;;;2.17;;
6348;SDS011;3207;42.648;23.406;2023-01-16T06:00:35;2.37;;;1.97;;
6348;SDS011;3207;42.648;23.406;2023-01-16T06:03:04;2.40;;;2.20;;
6348;SDS011;3207;42.648;23.406;2023-01-16T06:05:31;2.53;;;2.33;;
6348;SDS011;3207;42.648;23.406;2023-01-16T06:07:59;3.03;;;2.57;;
6348;SDS011;3207;42.648;23.406;2023-01-16T06:10:25;3.60;;;2.87;;
6348;SDS011;3207;42.648;23.406;2023-01-16T06:12:53;4.40;;;3.07;;
6348;SDS011;3207;42.648;23.406;2023-01-16T06:15:20;5.67;;;4.40;;
6348;SDS011;3207;42.648;23.406;2023-01-16T06:17:46;8.10;;;6.00;;
6348;SDS011;3207;42.648;23.406;2023-01-16T06:20:17;3.27;;;2.83;;
6348;SDS011;3207;42.648;23.406;2023-01-16T06:22:44;2.83;;;2.20;;
6348;SDS011;3207;42.648;23.406;2023-01-16T06:25:11;5.37;;;2.67;;
6348;SDS011;3207;42.648;23.406;2023-01-16T06:27:38;1.87;;;1.30;;
6348;SDS011;3207;42.648;23.406;2023-01-16T06:30:05;1.67;;;1.57;;
6348;SDS011;3207;42.648;23.406;2023-01-16T06:32:33;1.30;;;1.20;;
6348;SDS011;3207;42.648;23.406;2023-01-16T06:35:00;1.13;;;1.03;;
6348;SDS011;3207;42.648;23.406;2023-01-16T06:37:28;1.70;;;1.57;;
6348;SDS011;3207;42.648;23.406;2023-01-16T06:39:55;1.47;;;1.27;;
6348;SDS011;3207;42.648;23.406;2023-01-16T06:42:23;1.13;;;1.10;;
6348;SDS011;3207;42.648;23.406;2023-01-16T06:44:50;1.77;;;1.67;;
6348;SDS011;3207;42.648;23.406;2023-01-16T06:47:17;3.97;;;3.17;;
6348;SDS011;3207;42.648;23.406;2023-01-16T06:49:43;1.47;;;1.37;;
6348;SDS011;3207;42.648;23.406;2023-01-16T06:52:10;1.30;;;1.20;;
6348;SDS011;3207;42.648;23.406;2023-01-16T06:54:38;1.10;;;1.00;;
6348;SDS011;3207;42.648;23.406;2023-01-16T06:57:05;1.37;;;1.27;;
6348;SDS011;3207;42.648;23.406;2023-01-16T06:59:32;0.80;;;0.80;;
6348;SDS011;3207;42.648;23.406;2023-01-16T07:01:59;1.03;;;0.93;;
6348;SDS011;3207;42.648;23.406;2023-01-16T07:04:26;1.87;;;0.87;;
6348;SDS011;3207;42.648;23.406;2023-01-16T07:06:52;0.77;;;0.77;;
6348;SDS011;3207;42.648;23.406;2023-01-16T07:09:19;1.57;;;1.47;;
6348;SDS011;3207;42.648;23.406;2023-01-16T07:11:52;0.90;;;0.90;;
6348;SDS011;3207;42.648;23.406;2023-01-16T07:14:19;0.80;;;0.80;;
6348;SDS011;3207;42.648;23.406;2023-01-16T07:17:03;0.70;;;0.70;;
6348;SDS011;3207;42.648;23.406;2023-01-16T07:19:48;1.17;;;1.00;;
6348;SDS011;3207;42.648;23.406;2023-01-16T07:22:32;0.60;;;0.60;;
6348;SDS011;3207;42.648;23.406;2023-01-16T07:25:05;0.73;;;0.73;;
6348;SDS011;3207;42.648;23.406;2023-01-16T07:27:37;1.00;;;0.90;;
6348;SDS011;3207;42.648;23.406;2023-01-16T07:30:05;0.60;;;0.60;;
6348;SDS011;3207;42.648;23.406;2023-01-16T07:32:33;0.77;;;0.77;;
6348;SDS011;3207;42.648;23.406;2023-01-16T07:35:00;1.13;;;1.13;;
6348;SDS011;3207;42.648;23.406;2023-01-16T07:37:30;1.30;;;1.07;;
6348;SDS011;3207;42.648;23.406;2023-01-16T07:39:57;0.93;;;0.93;;
6348;SDS011;3207;42.648;23.406;2023-01-16T07:42:24;1.10;;;1.00;;
6348;SDS011;3207;42.648;23.406;2023-01-16T07:44:52;4.50;;;1.10;;
6348;SDS011;3207;42.648;23.406;2023-01-16T07:47:18;1.40;;;1.30;;
6348;SDS011;3207;42.648;23.406;2023-01-16T07:49:45;1.20;;;1.10;;
6348;SDS011;3207;42.648;23.406;2023-01-16T07:52:12;2.77;;;1.23;;
6348;SDS011;3207;42.648;23.406;2023-01-16T07:54:39;3.90;;;1.50;;
6348;SDS011;3207;42.648;23.406;2023-01-16T07:57:06;1.03;;;1.00;;
6348;SDS011;3207;42.648;23.406;2023-01-16T07:59:33;1.17;;;1.07;;
6348;SDS011;3207;42.648;23.406;2023-01-16T08:02:01;1.40;;;1.30;;
6348;SDS011;3207;42.648;23.406;2023-01-16T08:04:28;3.37;;;1.23;;
6348;SDS011;3207;42.648;23.406;2023-01-16T08:06:55;2.03;;;1.30;;
6348;SDS011;3207;42.648;23.406;2023-01-16T08:09:22;1.30;;;1.20;;
6348;SDS011;3207;42.648;23.406;2023-01-16T08:11:48;2.27;;;1.20;;
6348;SDS011;3207;42.648;23.406;2023-01-16T08:14:15;2.70;;;1.80;;
6348;SDS011;3207;42.648;23.406;2023-01-16T08:16:42;3.00;;;1.60;;
6348;SDS011;3207;42.648;23.406;2023-01-16T08:19:10;1.20;;;1.10;;
6348;SDS011;3207;42.648;23.406;2023-01-16T08:21:37;1.87;;;1.77;;
6348;SDS011;3207;42.648;23.406;2023-01-16T08:24:04;1.80;;;1.70;;
6348;SDS011;3207;42.648;23.406;2023-01-16T08:26:31;2.03;;;1.30;;
6348;SDS011;3207;42.648;23.406;2023-01-16T08:28:59;1.40;;;1.30;;
6348;SDS011;3207;42.648;23.406;2023-01-16T08:31:27;3.13;;;1.27;;
6348;SDS011;3207;42.648;23.406;2023-01-16T08:33:54;3.33;;;1.17;;
6348;SDS011;3207;42.648;23.406;2023-01-16T08:36:22;1.23;;;1.07;;
6348;SDS011;3207;42.648;23.406;2023-01-16T08:38:50;1.37;;;1.27;;
6348;SDS011;3207;42.648;23.406;2023-01-16T08:41:17;1.00;;;1.00;;
6348;SDS011;3207;42.648;23.406;2023-01-16T08:44:01;2.00;;;0.93;;
6348;SDS011;3207;42.648;23.406;2023-01-16T08:46:49;1.20;;;1.10;;
6348;SDS011;3207;42.648;23.406;2023-01-16T08:49:37;1.83;;;1.13;;
6348;SDS011;3207;42.648;23.406;2023-01-16T08:52:23;1.60;;;1.23;;
6348;SDS011;3207;42.648;23.406;2023-01-16T08:54:52;1.63;;;1.33;;
6348;SDS011;3207;42.648;23.406;2023-01-16T08:57:19;2.13;;;1.60;;
6348;SDS011;3207;42.648;23.406;2023-01-16T08:59:46;1.93;;;1.40;;
6348;SDS011;3207;42.648;23.406;2023-01-16T09:02:12;1.47;;;1.30;;
6348;SDS011;3207;42.648;23.406;2023-01-16T09:04:40;2.23;;;1.73;;
6348;SDS011;3207;42.648;23.406;2023-01-16T09:07:08;1.60;;;1.47;;
6348;SDS011;3207;42.648;23.406;2023-01-16T09:09:36;1.90;;;1.50;;
6348;SDS011;3207;42.648;23.406;2023-01-16T09:12:07;3.47;;;1.60;;
6348;SDS011;3207;42.648;23.406;2023-01-16T09:14:52;2.80;;;1.80;;
6348;SDS011;3207;42.648;23.406;2023-01-16T09:17:20;4.80;;;2.87;;
6348;SDS011;3207;42.648;23.406;2023-01-16T09:19:47;5.10;;;3.93;;
6348;SDS011;3207;42.648;23.406;2023-01-16T09:22:14;9.93;;;6.67;;
6348;SDS011;3207;42.648;23.406;2023-01-16T09:24:42;6.37;;;4.50;;
6348;SDS011;3207;42.648;23.406;2023-01-16T09:27:09;4.90;;;3.70;;
6348;SDS011;3207;42.648;23.406;2023-01-16T09:29:38;4.17;;;3.40;;
6348;SDS011;3207;42.648;23.406;2023-01-16T09:32:04;4.00;;;3.30;;
6348;SDS011;3207;42.648;23.406;2023-01-16T09:34:33;5.70;;;4.43;;
6348;SDS011;3207;42.648;23.406;2023-01-16T09:37:01;7.27;;;5.03;;
6348;SDS011;3207;42.648;23.406;2023-01-16T09:39:28;6.60;;;5.87;;
6348;SDS011;3207;42.648;23.406;2023-01-16T09:42:00;5.17;;;4.27;;
6348;SDS011;3207;42.648;23.406;2023-01-16T09:45:10;5.93;;;3.93;;
6348;SDS011;3207;42.648;23.406;2023-01-16T09:47:39;5.47;;;4.07;;
6348;SDS011;3207;42.648;23.406;2023-01-16T09:50:11;8.67;;;5.97;;
6348;SDS011;3207;42.648;23.406;2023-01-16T09:52:43;5.73;;;4.63;;
6348;SDS011;3207;42.648;23.406;2023-01-16T09:55:32;7.83;;;4.97;;
6348;SDS011;3207;42.648;23.406;2023-01-16T09:58:22;4.97;;;3.53;;
6348;SDS011;3207;42.648;23.406;2023-01-16T10:01:02;5.63;;;4.13;;
6348;SDS011;3207;42.648;23.406;2023-01-16T10:03:29;5.90;;;3.50;;
6348;SDS011;3207;42.648;23.406;2023-01-16T10:05:59;4.90;;;3.83;;
6348;SDS011;3207;42.648;23.406;2023-01-16T10:08:33;4.53;;;4.13;;
6348;SDS011;3207;42.648;23.406;2023-01-16T10:11:10;4.70;;;4.23;;
6348;SDS011;3207;42.648;23.406;2023-01-16T10:13:48;6.90;;;4.63;;
6348;SDS011;3207;42.648;23.406;2023-01-16T10:16:28;5.93;;;4.50;;
6348;SDS011;3207;42.648;23.406;2023-01-16T10:19:06;5.13;;;4.43;;
6348;SDS011;3207;42.648;23.406;2023-01-16T10:24:36;8.53;;;6.13;;
6348;SDS011;3207;42.648;23.406;2023-01-16T10:27:15;10.43;;;5.90;;
6348;SDS011;3207;42.648;23.406;2023-01-16T10:29:46;8.97;;;7.90;;
6348;SDS011;3207;42.648;23.406;2023-01-16T10:32:20;6.00;;;5.40;;
6348;SDS011;3207;42.648;23.406;2023-01-16T10:34:53;4.77;;;4.27;;
6348;SDS011;3207;42.648;23.406;2023-01-16T10:37:28;5.93;;;5.33;;
6348;SDS011;3207;42.648;23.406;2023-01-16T10:39:55;7.43;;;5.87;;
6348;SDS011;3207;42.648;23.406;2023-01-16T10:42:26;5.30;;;4.60;;
6348;SDS011;3207;42.648;23.406;2023-01-16T10:45:15;4.93;;;4.53;;
6348;SDS011;3207;42.648;23.406;2023-01-16T10:48:03;7.13;;;5.33;;
6348;SDS011;3207;42.648;23.406;2023-01-16T10:50:51;6.60;;;4.53;;
6348;SDS011;3207;42.648;23.406;2023-01-16T10:53:17;7.80;;;6.47;;
6348;SDS011;3207;42.648;23.406;2023-01-16T10:55:45;6.30;;;5.20;;
6348;SDS011;3207;42.648;23.406;2023-01-16T10:58:22;7.10;;;5.40;;
6348;SDS011;3207;42.648;23.406;2023-01-16T11:00:54;14.67;;;9.07;;
6348;SDS011;3207;42.648;23.406;2023-01-16T11:03:27;16.80;;;9.37;;
6348;SDS011;3207;42.648;23.406;2023-01-16T11:06:09;6.70;;;5.80;;
6348;SDS011;3207;42.648;23.406;2023-01-16T11:08:38;5.23;;;4.73;;
6348;SDS011;3207;42.648;23.406;2023-01-16T11:11:06;8.33;;;6.50;;
6348;SDS011;3207;42.648;23.406;2023-01-16T11:13:56;7.97;;;6.23;;
6348;SDS011;3207;42.648;23.406;2023-01-16T11:16:42;9.00;;;6.60;;
6348;SDS011;3207;42.648;23.406;2023-01-16T11:19:26;11.17;;;7.33;;
6348;SDS011;3207;42.648;23.406;2023-01-16T11:21:56;7.13;;;5.93;;
6348;SDS011;3207;42.648;23.406;2023-01-16T11:24:28;10.50;;;7.60;;
6348;SDS011;3207;42.648;23.406;2023-01-16T11:26:58;7.13;;;6.20;;
6348;SDS011;3207;42.648;23.406;2023-01-16T11:29:28;8.13;;;5.53;;
6348;SDS011;3207;42.648;23.406;2023-01-16T11:32:03;10.73;;;6.47;;
6348;SDS011;3207;42.648;23.406;2023-01-16T11:34:32;7.90;;;6.53;;
6348;SDS011;3207;42.648;23.406;2023-01-16T11:37:00;12.93;;;7.10;;
6348;SDS011;3207;42.648;23.406;2023-01-16T11:39:30;11.57;;;9.30;;
6348;SDS011;3207;42.648;23.406;2023-01-16T11:41:59;11.53;;;7.43;;
6348;SDS011;3207;42.648;23.406;2023-01-16T11:44:53;7.93;;;7.10;;
6348;SDS011;3207;42.648;23.406;2023-01-16T11:47:41;10.20;;;7.33;;
6348;SDS011;3207;42.648;23.406;2023-01-16T11:50:20;11.83;;;8.20;;
6348;SDS011;3207;42.648;23.406;2023-01-16T11:52:52;8.73;;;7.00;;
6348;SDS011;3207;42.648;23.406;2023-01-16T11:55:19;8.00;;;6.57;;
6348;SDS011;3207;42.648;23.406;2023-01-16T11:57:51;11.37;;;8.27;;
6348;SDS011;3207;42.648;23.406;2023-01-16T12:00:30;6.47;;;5.87;;
6348;SDS011;3207;42.648;23.406;2023-01-16T12:06:06;8.43;;;6.13;;
6348;SDS011;3207;42.648;23.406;2023-01-16T12:14:49;12.83;;;10.67;;
6348;SDS011;3207;42.648;23.406;2023-01-16T12:17:30;12.13;;;9.27;;
6348;SDS011;3207;42.648;23.406;2023-01-16T12:20:16;14.43;;;10.97;;
6348;SDS011;3207;42.648;23.406;2023-01-16T12:26:01;11.40;;;9.47;;
6348;SDS011;3207;42.648;23.406;2023-01-16T12:28:40;8.03;;;6.90;;
6348;SDS011;3207;42.648;23.406;2023-01-16T12:31:20;10.50;;;9.07;;
6348;SDS011;3207;42.648;23.406;2023-01-16T12:37:00;10.97;;;7.73;;
6348;SDS011;3207;42.648;23.406;2023-01-16T12:39:40;10.43;;;7.33;;
6348;SDS011;3207;42.648;23.406;2023-01-16T12:42:18;10.10;;;6.70;;
6348;SDS011;3207;42.648;23.406;2023-01-16T12:45:15;9.33;;;7.10;;
6348;SDS011;3207;42.648;23.406;2023-01-16T12:47:56;9.50;;;7.00;;
6348;SDS011;3207;42.648;23.406;2023-01-16T12:50:38;10.20;;;7.33;;
6348;SDS011;3207;42.648;23.406;2023-01-16T12:56:24;9.53;;;6.50;;
6348;SDS011;3207;42.648;23.406;2023-01-16T12:59:01;9.30;;;6.63;;
6348;SDS011;3207;42.648;23.406;2023-01-16T13:01:36;10.13;;;5.50;;
6348;SDS011;3207;42.648;23.406;2023-01-16T13:04:10;8.37;;;6.77;;
6348;SDS011;3207;42.648;23.406;2023-01-16T13:06:42;7.37;;;6.17;;
6348;SDS011;3207;42.648;23.406;2023-01-16T13:09:14;7.07;;;6.37;;
6348;SDS011;3207;42.648;23.406;2023-01-16T13:11:55;6.17;;;5.20;;
6348;SDS011;3207;42.648;23.406;2023-01-16T13:14:45;8.20;;;5.97;;
6348;SDS011;3207;42.648;23.406;2023-01-16T13:17:18;7.43;;;5.27;;
6348;SDS011;3207;42.648;23.406;2023-01-16T13:19:49;7.60;;;5.57;;
6348;SDS011;3207;42.648;23.406;2023-01-16T13:22:20;8.43;;;6.20;;
6348;SDS011;3207;42.648;23.406;2023-01-16T13:24:53;9.77;;;6.07;;
6348;SDS011;3207;42.648;23.406;2023-01-16T13:27:31;13.27;;;6.60;;
6348;SDS011;3207;42.648;23.406;2023-01-16T13:30:06;7.00;;;5.70;;
6348;SDS011;3207;42.648;23.406;2023-01-16T13:32:38;10.53;;;6.23;;
6348;SDS011;3207;42.648;23.406;2023-01-16T13:35:08;7.27;;;6.57;;
6348;SDS011;3207;42.648;23.406;2023-01-16T13:37:46;9.17;;;6.43;;
6348;SDS011;3207;42.648;23.406;2023-01-16T13:40:38;6.70;;;5.53;;
6348;SDS011;3207;42.648;23.406;2023-01-16T13:43:39;8.60;;;6.20;;
6348;SDS011;3207;42.648;23.406;2023-01-16T13:46:26;8.27;;;6.33;;
6348;SDS011;3207;42.648;23.406;2023-01-16T13:48:57;5.93;;;5.30;;
6348;SDS011;3207;42.648;23.406;2023-01-16T13:51:26;8.33;;;5.77;;
6348;SDS011;3207;42.648;23.406;2023-01-16T13:53:54;5.73;;;4.53;;
6348;SDS011;3207;42.648;23.406;2023-01-16T13:56:24;4.20;;;3.80;;
6348;SDS011;3207;42.648;23.406;2023-01-16T13:58:56;5.03;;;4.00;;
6348;SDS011;3207;42.648;23.406;2023-01-16T14:01:29;4.77;;;4.37;;
6348;SDS011;3207;42.648;23.406;2023-01-16T14:06:55;8.80;;;4.77;;
6348;SDS011;3207;42.648;23.406;2023-01-16T14:12:42;4.87;;;3.30;;
6348;SDS011;3207;42.648;23.406;2023-01-16T14:15:17;6.33;;;4.13;;
6348;SDS011;3207;42.648;23.406;2023-01-16T14:18:13;4.83;;;3.90;;
6348;SDS011;3207;42.648;23.406;2023-01-16T14:20:43;8.70;;;5.30;;
6348;SDS011;3207;42.648;23.406;2023-01-16T14:23:19;4.00;;;3.60;;
6348;SDS011;3207;42.648;23.406;2023-01-16T14:26:06;6.93;;;4.70;;
6348;SDS011;3207;42.648;23.406;2023-01-16T14:28:34;7.57;;;6.73;;
6348;SDS011;3207;42.648;23.406;2023-01-16T14:31:15;15.97;;;11.10;;
6348;SDS011;3207;42.648;23.406;2023-01-16T14:33:47;8.63;;;6.13;;
6348;SDS011;3207;42.648;23.406;2023-01-16T14:36:14;4.90;;;4.40;;
6348;SDS011;3207;42.648;23.406;2023-01-16T14:38:44;5.07;;;4.37;;
6348;SDS011;3207;42.648;23.406;2023-01-16T14:41:14;6.87;;;5.23;;
6348;SDS011;3207;42.648;23.406;2023-01-16T14:44:06;7.00;;;5.43;;
6348;SDS011;3207;42.648;23.406;2023-01-16T14:47:22;6.93;;;6.23;;
6348;SDS011;3207;42.648;23.406;2023-01-16T14:50:09;6.13;;;5.23;;
6348;SDS011;3207;42.648;23.406;2023-01-16T14:56:04;9.30;;;6.93;;
6348;SDS011;3207;42.648;23.406;2023-01-16T14:58:39;12.07;;;7.90;;
6348;SDS011;3207;42.648;23.406;2023-01-16T15:01:14;9.47;;;7.50;;
6348;SDS011;3207;42.648;23.406;2023-01-16T15:04:10;6.90;;;5.83;;
6348;SDS011;3207;42.648;23.406;2023-01-16T15:06:40;5.77;;;4.93;;
6348;SDS011;3207;42.648;23.406;2023-01-16T15:09:12;7.90;;;6.17;;
6348;SDS011;3207;42.648;23.406;2023-01-16T15:11:44;6.50;;;5.70;;
6348;SDS011;3207;42.648;23.406;2023-01-16T15:14:17;6.40;;;5.00;;
6348;SDS011;3207;42.648;23.406;2023-01-16T15:17:01;7.23;;;6.50;;
6348;SDS011;3207;42.648;23.406;2023-01-16T15:19:58;6.53;;;5.80;;
6348;SDS011;3207;42.648;23.406;2023-01-16T15:22:45;7.53;;;4.97;;
6348;SDS011;3207;42.648;23.406;2023-01-16T15:25:19;7.67;;;6.07;;
6348;SDS011;3207;42.648;23.406;2023-01-16T15:28:08;8.10;;;6.67;;
6348;SDS011;3207;42.648;23.406;2023-01-16T15:30:41;12.63;;;7.00;;
6348;SDS011;3207;42.648;23.406;2023-01-16T15:33:22;10.20;;;7.30;;
6348;SDS011;3207;42.648;23.406;2023-01-16T15:38:59;10.27;;;6.67;;
6348;SDS011;3207;42.648;23.406;2023-01-16T15:41:37;8.00;;;5.90;;
6348;SDS011;3207;42.648;23.406;2023-01-16T15:44:27;9.30;;;6.77;;
6348;SDS011;3207;42.648;23.406;2023-01-16T15:47:16;8.03;;;5.93;;
6348;SDS011;3207;42.648;23.406;2023-01-16T15:50:07;6.17;;;5.57;;
6348;SDS011;3207;42.648;23.406;2023-01-16T15:52:47;6.70;;;5.93;;
6348;SDS011;3207;42.648;23.406;2023-01-16T15:55:15;8.00;;;6.53;;
6348;SDS011;3207;42.648;23.406;2023-01-16T15:57:46;11.37;;;7.70;;
6348;SDS011;3207;42.648;23.406;2023-01-16T16:00:21;11.97;;;7.90;;
6348;SDS011;3207;42.648;23.406;2023-01-16T16:02:57;10.63;;;8.33;;
6348;SDS011;3207;42.648;23.406;2023-01-16T16:05:26;15.77;;;9.83;;
6348;SDS011;3207;42.648;23.406;2023-01-16T16:07:55;10.93;;;8.73;;
6348;SDS011;3207;42.648;23.406;2023-01-16T16:10:24;9.60;;;6.73;;
6348;SDS011;3207;42.648;23.406;2023-01-16T16:13:10;9.77;;;6.90;;